createdAt,value
2018-04-12T00:00:41.524Z,15.33
2018-04-12T00:04:47.987Z,13.90
2018-04-12T00:08:54.619Z,9.27
2018-04-12T00:13:00.459Z,13.83
2018-04-12T00:17:06.173Z,10.30
2018-04-12T00:21:11.971Z,15.00
2018-04-12T00:25:18.658Z,10.23
2018-04-12T00:29:24.557Z,13.80
2018-04-12T00:33:30.372Z,13.90
2018-04-12T00:37:36.507Z,19.08
2018-04-12T00:41:42.505Z,18.13
2018-04-12T00:45:49.072Z,18.95
2018-04-12T00:49:55.535Z,16.47
2018-04-12T00:54:08.594Z,18.90
2018-04-12T00:58:16.145Z,12.70
2018-04-12T01:02:22.418Z,12.67
2018-04-12T01:06:28.895Z,14.80
2018-04-12T01:10:35.856Z,15.35
2018-04-12T01:14:42.080Z,17.77
2018-04-12T01:18:48.998Z,11.30
2018-04-12T01:22:55.174Z,11.40
2018-04-12T01:27:01.155Z,13.23
2018-04-12T01:31:07.617Z,12.93
2018-04-12T01:35:13.753Z,8.53
2018-04-12T01:39:21.135Z,10.30
2018-04-12T01:43:27.135Z,12.17
2018-04-12T01:47:34.768Z,18.30
2018-04-12T01:51:40.604Z,14.17
2018-04-12T01:55:46.709Z,13.27
2018-04-12T01:59:52.651Z,14.87
2018-04-12T02:03:58.533Z,13.00
2018-04-12T02:08:05.003Z,15.33
2018-04-12T02:12:11.142Z,14.20
2018-04-12T02:16:17.270Z,15.80
2018-04-12T02:20:23.835Z,15.93
2018-04-12T02:24:29.711Z,31.10
2018-04-12T02:28:35.561Z,37.70
2018-04-12T02:32:41.147Z,25.12
2018-04-12T02:36:48.089Z,14.63
2018-04-12T02:40:54.197Z,72.97
2018-04-12T02:45:01.131Z,15.00
2018-04-12T02:49:07.565Z,18.87
2018-04-12T02:53:13.605Z,16.60
2018-04-12T02:57:20.190Z,13.60
2018-04-12T03:01:27.235Z,14.73
2018-04-12T03:05:33.089Z,16.53
2018-04-12T03:09:38.714Z,11.63
2018-04-12T03:13:44.602Z,14.03
2018-04-12T03:17:50.295Z,13.30
2018-04-12T03:21:56.254Z,23.37
2018-04-12T03:26:03.053Z,27.40
2018-04-12T03:30:08.924Z,21.23
2018-04-12T03:34:14.430Z,24.90
2018-04-12T03:38:21.038Z,20.83
2018-04-12T03:42:27.351Z,17.17
2018-04-12T03:46:33.223Z,20.80
2018-04-12T03:50:39.828Z,18.17
2018-04-12T03:54:45.517Z,16.90
2018-04-12T03:58:51.811Z,19.83
2018-04-12T04:02:57.768Z,27.33
2018-04-12T04:07:03.713Z,13.93
2018-04-12T04:11:10.487Z,16.90
2018-04-12T04:15:27.849Z,17.00
2018-04-12T04:19:45.003Z,14.77
2018-04-12T04:23:50.974Z,20.70
2018-04-12T04:27:56.790Z,18.00
2018-04-12T04:32:02.857Z,20.43
2018-04-12T04:36:08.996Z,25.27
2018-04-12T04:40:14.906Z,17.03
2018-04-12T04:44:20.609Z,22.73
2018-04-12T04:48:26.404Z,17.27
2018-04-12T04:52:33.238Z,17.40
2018-04-12T04:56:40.173Z,14.37
2018-04-12T05:00:46.336Z,39.10
2018-04-12T05:04:52.041Z,21.70
2018-04-12T05:08:58.190Z,25.40
2018-04-12T05:13:04.676Z,25.33
2018-04-12T05:17:10.312Z,21.53
2018-04-12T05:21:16.103Z,23.10
2018-04-12T05:25:44.015Z,22.50
2018-04-12T05:29:49.952Z,19.97
2018-04-12T05:33:56.084Z,28.30
2018-04-12T05:38:01.856Z,27.17
2018-04-12T05:42:08.400Z,27.62
2018-04-12T05:46:14.275Z,27.10
2018-04-12T05:50:21.244Z,26.85
2018-04-12T05:54:27.978Z,26.37
2018-04-12T05:58:34.327Z,22.33
2018-04-12T06:02:41.150Z,25.93
2018-04-12T06:06:47.989Z,26.83
2018-04-12T06:10:54.015Z,30.20
2018-04-12T06:15:00.563Z,26.73
2018-04-12T06:19:07.047Z,29.47
2018-04-12T06:23:13.276Z,23.00
2018-04-12T06:27:19.886Z,32.17
2018-04-12T06:31:26.093Z,26.58
2018-04-12T06:35:31.989Z,28.33
2018-04-12T06:39:38.134Z,25.90
2018-04-12T06:43:44.793Z,28.10
2018-04-12T06:47:51.246Z,27.17
2018-04-12T06:51:58.521Z,24.27
2018-04-12T06:56:05.701Z,25.27
2018-04-12T07:00:11.877Z,20.07
2018-04-12T07:04:18.925Z,21.80
2018-04-12T07:08:24.898Z,33.63
2018-04-12T07:12:30.600Z,19.37
2018-04-12T07:16:37.112Z,19.17
2018-04-12T07:20:42.749Z,23.53
2018-04-12T07:24:48.263Z,31.37
2018-04-12T07:28:53.798Z,21.57
2018-04-12T07:32:59.405Z,21.33
2018-04-12T07:37:04.988Z,26.87
2018-04-12T07:41:10.693Z,25.65
2018-04-12T07:45:16.298Z,25.43
2018-04-12T07:49:22.985Z,29.77
2018-04-12T07:53:30.192Z,24.83
2018-04-12T07:57:37.581Z,22.53
2018-04-12T08:01:44.488Z,17.87
2018-04-12T08:05:51.635Z,18.03
2018-04-12T08:09:58.471Z,22.50
2018-04-12T08:14:04.741Z,21.33
2018-04-12T08:18:10.774Z,27.37
2018-04-12T08:22:18.080Z,21.33
2018-04-12T08:26:24.096Z,21.80
2018-04-12T08:30:30.545Z,25.58
2018-04-12T08:34:37.359Z,25.73
2018-04-12T08:38:43.928Z,19.13
2018-04-12T08:42:50.461Z,20.43
2018-04-12T08:46:56.355Z,29.17
2018-04-12T08:51:02.667Z,26.60
2018-04-12T08:55:08.697Z,20.23
2018-04-12T08:59:17.791Z,22.80
2018-04-12T09:03:25.002Z,26.77
2018-04-12T09:07:30.755Z,29.63
2018-04-12T09:11:37.195Z,22.77
2018-04-12T09:15:42.711Z,23.53
2018-04-12T09:19:48.416Z,25.53
2018-04-12T09:23:54.105Z,25.20
2018-04-12T09:27:59.821Z,20.77
2018-04-12T09:32:05.429Z,23.97
2018-04-12T09:36:12.006Z,19.50
2018-04-12T09:40:17.849Z,32.40
2018-04-12T09:44:23.703Z,23.47
2018-04-12T09:48:30.313Z,23.70
2018-04-12T09:52:36.077Z,20.53
2018-04-12T09:56:42.301Z,20.15
2018-04-12T10:00:57.442Z,22.30
2018-04-12T10:05:03.022Z,21.23
2018-04-12T10:09:15.690Z,21.63
2018-04-12T10:13:21.066Z,26.27
2018-04-12T10:17:27.514Z,24.83
2018-04-12T10:21:33.931Z,23.93
2018-04-12T10:25:39.606Z,23.17
2018-04-12T10:29:45.199Z,23.87
2018-04-12T10:33:50.739Z,25.50
2018-04-12T10:37:56.483Z,23.00
2018-04-12T10:42:02.201Z,28.13
2018-04-12T10:46:07.839Z,27.30
2018-04-12T10:50:13.411Z,20.70
2018-04-12T10:54:21.819Z,21.87
2018-04-12T10:58:28.277Z,17.80
2018-04-12T11:02:35.640Z,27.37
2018-04-12T11:06:42.375Z,17.87
2018-04-12T11:10:48.107Z,15.00
2018-04-12T11:14:55.359Z,12.63
2018-04-12T11:19:01.157Z,17.33
2018-04-12T11:23:07.125Z,16.60
2018-04-12T11:27:12.955Z,18.98
2018-04-12T11:31:18.455Z,15.57
2018-04-12T11:35:24.358Z,13.20
2018-04-12T11:39:30.903Z,16.67
2018-04-12T11:43:36.536Z,16.70
2018-04-12T11:47:42.163Z,16.70
2018-04-12T11:51:47.795Z,16.97
2018-04-12T11:55:54.841Z,17.70
2018-04-12T12:00:00.901Z,15.20
2018-04-12T12:04:07.585Z,14.00
2018-04-12T12:08:13.333Z,16.90
2018-04-12T12:12:19.228Z,15.43
2018-04-12T12:16:24.848Z,15.23
2018-04-12T12:20:30.731Z,14.40
2018-04-12T12:24:37.736Z,11.12
2018-04-12T12:28:43.365Z,16.83
2018-04-12T12:32:48.856Z,13.23
2018-04-12T12:36:54.495Z,11.93
2018-04-12T12:41:00.152Z,24.00
2018-04-12T12:45:05.821Z,16.60
2018-04-12T12:49:11.279Z,18.40
2018-04-12T12:53:16.723Z,18.10
2018-04-12T12:57:22.508Z,21.60
2018-04-12T13:01:28.165Z,18.45
2018-04-12T13:05:34.822Z,18.35
2018-04-12T13:09:40.553Z,16.47
2018-04-12T13:13:46.130Z,18.80
2018-04-12T13:17:52.025Z,26.05
2018-04-12T13:21:57.667Z,21.10
2018-04-12T13:26:03.302Z,19.97
2018-04-12T13:30:09.723Z,24.58
2018-04-12T13:34:15.329Z,20.50
2018-04-12T13:38:20.836Z,22.53
2018-04-12T13:42:26.446Z,22.20
2018-04-12T13:46:31.959Z,61.37
2018-04-12T13:50:37.726Z,80.53
2018-04-12T13:54:43.391Z,21.80
2018-04-12T13:58:49.119Z,26.03
2018-04-12T14:02:55.478Z,24.27
2018-04-12T14:07:01.778Z,22.23
2018-04-12T14:11:07.710Z,19.60
2018-04-12T14:15:14.450Z,29.53
2018-04-12T14:19:20.859Z,23.93
2018-04-12T14:23:26.685Z,21.03
2018-04-12T14:27:32.270Z,22.73
2018-04-12T14:31:37.961Z,18.23
2018-04-12T14:35:44.948Z,17.40
2018-04-12T14:39:50.618Z,22.13
2018-04-12T14:43:57.060Z,15.17
2018-04-12T14:48:02.596Z,18.10
2018-04-12T14:52:08.255Z,21.57
2018-04-12T14:56:13.611Z,22.50
2018-04-12T15:00:19.153Z,20.20
2018-04-12T15:04:24.739Z,20.47
2018-04-12T15:08:30.979Z,19.93
2018-04-12T15:12:36.921Z,17.20
2018-04-12T15:16:43.345Z,20.97
2018-04-12T15:20:49.889Z,23.83
2018-04-12T15:24:55.864Z,26.17
2018-04-12T15:29:02.121Z,18.73
2018-04-12T15:33:07.889Z,18.67
2018-04-12T15:37:14.072Z,16.40
2018-04-12T15:41:20.420Z,21.33
2018-04-12T15:45:26.431Z,25.00
2018-04-12T15:49:32.342Z,20.67
2018-04-12T15:53:37.944Z,20.37
2018-04-12T15:57:43.634Z,31.50
2018-04-12T16:01:49.477Z,17.75
2018-04-12T16:05:55.546Z,18.20
2018-04-12T16:10:01.886Z,18.53
2018-04-12T16:14:07.413Z,17.03
2018-04-12T16:18:13.192Z,18.33
2018-04-12T16:22:18.789Z,16.20
2018-04-12T16:26:24.999Z,23.57
2018-04-12T16:30:30.816Z,20.00
2018-04-12T16:34:36.537Z,20.40
2018-04-12T16:38:42.404Z,17.63
2018-04-12T16:42:48.098Z,20.87
2018-04-12T16:46:53.679Z,21.77
2018-04-12T16:50:59.649Z,17.97
2018-04-12T16:55:05.525Z,20.40
2018-04-12T16:59:11.401Z,21.63
2018-04-12T17:03:16.827Z,22.30
2018-04-12T17:07:22.397Z,18.50
2018-04-12T17:11:29.011Z,18.00
2018-04-12T17:15:34.556Z,15.27
2018-04-12T17:19:40.387Z,15.70
2018-04-12T17:23:45.977Z,12.50
2018-04-12T17:27:51.686Z,13.75
2018-04-12T17:31:58.116Z,15.13
2018-04-12T17:36:03.676Z,14.93
2018-04-12T17:40:09.547Z,10.97
2018-04-12T17:44:15.327Z,14.37
2018-04-12T17:48:21.062Z,17.13
2018-04-12T17:52:27.327Z,11.63
2018-04-12T17:56:32.726Z,14.13
2018-04-12T18:00:38.383Z,8.77
2018-04-12T18:04:44.119Z,11.47
2018-04-12T18:08:49.671Z,9.50
2018-04-12T18:12:56.255Z,6.57
2018-04-12T18:17:01.775Z,8.53
2018-04-12T18:21:07.668Z,12.13
2018-04-12T18:25:13.303Z,8.10
2018-04-12T18:29:20.249Z,6.77
2018-04-12T18:33:26.157Z,4.37
2018-04-12T18:37:33.123Z,10.00
2018-04-12T18:41:39.657Z,8.57
2018-04-12T18:45:46.204Z,8.77
2018-04-12T18:49:51.697Z,6.13
2018-04-12T18:53:57.334Z,7.50
2018-04-12T18:58:02.950Z,5.13
2018-04-12T19:02:08.556Z,4.50
2018-04-12T19:06:14.547Z,4.20
2018-04-12T19:10:20.984Z,0.43
2018-04-12T19:14:27.286Z,3.80
2018-04-12T19:18:32.799Z,5.00
2018-04-12T19:22:39.142Z,4.47
2018-04-12T19:26:44.971Z,6.37
2018-04-12T19:30:50.658Z,4.82
2018-04-12T19:34:56.492Z,2.73
2018-04-12T19:39:02.309Z,5.20
2018-04-12T19:43:08.864Z,3.00
2018-04-12T19:47:14.478Z,6.70
2018-04-12T19:51:20.150Z,2.50
2018-04-12T19:55:25.887Z,4.63
2018-04-12T19:59:31.725Z,4.50
2018-04-12T20:03:38.468Z,7.40
2018-04-12T20:07:44.081Z,6.00
2018-04-12T20:11:49.725Z,5.47
2018-04-12T20:15:56.786Z,2.97
2018-04-12T20:20:03.292Z,4.40
2018-04-12T20:24:09.166Z,6.53
2018-04-12T20:28:15.048Z,6.03
2018-04-12T20:32:21.303Z,4.03
2018-04-12T20:36:27.338Z,1.70
2018-04-12T20:40:33.181Z,3.13
2018-04-12T20:44:38.931Z,4.17
2018-04-12T20:48:44.586Z,9.20
2018-04-12T20:52:50.428Z,2.90
2018-04-12T20:56:56.693Z,5.00
2018-04-12T21:01:04.024Z,6.33
2018-04-12T21:05:10.143Z,4.63
2018-04-12T21:09:16.091Z,8.40
2018-04-12T21:13:21.957Z,5.60
2018-04-12T21:17:28.655Z,4.83
2018-04-12T21:21:34.265Z,3.85
2018-04-12T21:25:40.094Z,6.63
2018-04-12T21:29:45.957Z,2.57
2018-04-12T21:33:52.142Z,5.33
2018-04-12T21:37:57.911Z,2.97
2018-04-12T21:42:04.498Z,6.40
2018-04-12T21:46:10.345Z,3.37
2018-04-12T21:50:16.781Z,10.23
2018-04-12T21:54:22.715Z,7.23
2018-04-12T21:58:28.433Z,3.77
2018-04-12T22:02:34.056Z,6.23
2018-04-12T22:06:40.072Z,8.30
2018-04-12T22:10:47.193Z,3.37
2018-04-12T22:14:53.041Z,10.73
2018-04-12T22:18:59.693Z,5.07
2018-04-12T22:23:06.113Z,10.55
2018-04-12T22:27:12.248Z,5.10
2018-04-12T22:31:18.703Z,9.63
2018-04-12T22:35:25.397Z,4.37
2018-04-12T22:39:31.193Z,7.93
2018-04-12T22:43:37.847Z,4.67
2018-04-12T22:47:44.184Z,7.30
2018-04-12T22:51:50.053Z,4.57
2018-04-12T22:55:55.976Z,2.63
2018-04-12T23:00:01.745Z,2.07
2018-04-12T23:04:08.151Z,3.85
2018-04-12T23:08:13.970Z,5.87
2018-04-12T23:12:19.725Z,1.97
2018-04-12T23:16:26.473Z,5.28
2018-04-12T23:20:33.408Z,4.30
2018-04-12T23:24:39.029Z,7.47
2018-04-12T23:28:44.761Z,2.57
2018-04-12T23:32:50.551Z,2.23
2018-04-12T23:36:56.417Z,2.30
2018-04-12T23:41:02.077Z,2.77
2018-04-12T23:45:07.923Z,1.07
2018-04-12T23:49:13.600Z,3.43
2018-04-12T23:53:19.439Z,1.53
2018-04-12T23:57:24.977Z,6.13
